Terminal Aerodrome Forecast
Issued by NWS Grand Forks, ND

Home | Current Version | Previous Version | Text Only | Print | Product List | Glossary Off
Versions: 1 2 3 4 5 6 7 8 9 10 11 12 13 14 15 16 17 18 19 20 21 22 23 24 25

482
FTUS43 KFGF 181720
TAFGFK
TAF
KGFK 181720Z 1818/1918 15008KT P6SM BKN080 BKN110
     FM190700 14008KT P6SM BKN015
     FM191100 14012KT P6SM BKN008
     FM191500 15021G29KT P6SM OVC015
     FM191700 15021G30KT P6SM BKN045=

USA.gov is the U.S. government's official web portal to all federal, state and local government web resources and services.